Currently 53°F in Wildomar, California, USA
53°F
53°F / 38°F
2 mph S
0.00"
Thursday, December 13, 2018 9:42 AM PST

Wildomar, California Weather Summary
Last 36 Hours

Temperature Winds Hourly Humidity Dewpoint
Time Report Norm Report Norm Max Gusts Precip. Rpt. Norm Rpt. Norm Pressure
1,2Thu 09:42 AM  53.1°F  56°F  2 mph S  1 mph  7 mph  0.00"  92%  66%  51°F  44°F  N/A
Thu 09:00 AM  49.9°F  51°F  calm  1 mph  none  0.00"  98%  75%  49°F  43°F  N/A
Thu 08:00 AM  40.7°F  44°F  calm  calm  none  0.00"  98%  85%  40°F  40°F  N/A
Thu 07:00 AM  38.6°F  42°F  calm  calm  none  0.00"  98%  85%  38°F  38°F  N/A
3Thu 06:50 AM  38.4°F  42°F  calm  calm  none  ----  98%  85%  38°F  38°F  N/A
Thu 06:00 AM  38.9°F  43°F  calm  calm  none  0.00"  98%  84%  38°F  38°F  N/A
Thu 05:00 AM  38.5°F  43°F  calm  calm  none  0.00"  98%  83%  38°F  38°F  N/A
Thu 04:00 AM  39.5°F  43°F  calm  calm  none  0.00"  98%  83%  39°F  38°F  N/A
Thu 03:00 AM  40.3°F  44°F  calm  calm  none  0.00"  97%  82%  40°F  38°F  N/A
Thu 02:00 AM  41.7°F  44°F  calm  calm  none  0.00"  97%  81%  41°F  39°F  N/A
Thu 01:00 AM  41.4°F  45°F  calm  calm  none  0.00"  97%  79%  40°F  39°F  N/A
Thu 12:00 AM  42.8°F  46°F  calm  calm  none  0.00"  96%  78%  42°F  39°F  N/A
Wed 11:00 PM  43.0°F  47°F  calm  calm  none  0.00"  96%  77%  42°F  39°F  N/A
Wed 10:00 PM  44.4°F  48°F  calm  calm  none  0.00"  95%  75%  43°F  40°F  N/A
Wed 09:00 PM  45.9°F  49°F  calm  1 mph  none  0.00"  93%  72%  44°F  40°F  N/A
Wed 08:00 PM  47.5°F  50°F  calm  calm  none  0.00"  91%  70%  45°F  40°F  N/A
Wed 07:00 PM  49.9°F  52°F  calm  calm  none  0.00"  87%  66%  46°F  41°F  N/A
Wed 06:00 PM  54.0°F  55°F  calm  1 mph  5 mph  0.00"  83%  61%  49°F  41°F  N/A
Wed 05:00 PM  58.4°F  58°F  1 mph S  1 mph  10 mph  0.00"  75%  55%  50°F  42°F  N/A
Wed 04:00 PM  63.8°F  63°F  calm  1 mph  4 mph  0.00"  65%  48%  51°F  42°F  N/A
Wed 03:00 PM  67.0°F  68°F  1 mph S  2 mph  6 mph  0.00"  56%  41%  50°F  42°F  N/A
Wed 02:00 PM  67.1°F  68°F  1 mph S  2 mph  7 mph  0.00"  55%  40%  50°F  42°F  N/A
Wed 01:00 PM  66.9°F  67°F  3 mph S  2 mph  7 mph  0.00"  53%  42%  49°F  42°F  N/A
Wed 12:00 PM  63.2°F  65°F  2 mph S  2 mph  6 mph  0.00"  62%  45%  50°F  43°F  N/A
Wed 11:00 AM  57.1°F  62°F  calm  2 mph  6 mph  0.00"  69%  51%  47°F  43°F  N/A
Wed 10:00 AM  52.1°F  58°F  2 mph S  1 mph  7 mph  0.00"  81%  61%  46°F  44°F  N/A
Wed 09:00 AM  47.0°F  52°F  3 mph S  1 mph  5 mph  0.00"  97%  74%  46°F  43°F  N/A
Wed 08:00 AM  40.3°F  45°F  calm  calm  none  0.00"  98%  84%  40°F  40°F  N/A
Wed 07:00 AM  39.1°F  42°F  calm  calm  none  0.00"  97%  84%  38°F  38°F  N/A
Wed 06:00 AM  39.3°F  43°F  calm  calm  5 mph  0.00"  97%  84%  38°F  38°F  N/A
Wed 05:00 AM  38.5°F  43°F  calm  calm  3 mph  0.00"  97%  83%  38°F  38°F  N/A
Wed 04:00 AM  39.4°F  43°F  calm  calm  none  0.00"  96%  82%  38°F  38°F  N/A
Wed 03:00 AM  40.1°F  44°F  calm  calm  none  0.00"  96%  81%  39°F  38°F  N/A
Wed 02:00 AM  40.6°F  44°F  calm  calm  none  0.00"  95%  80%  39°F  38°F  N/A
Wed 01:00 AM  41.3°F  45°F  calm  calm  none  0.00"  94%  79%  40°F  39°F  N/A
Wed 12:00 AM  42.3°F  46°F  calm  1 mph  none  0.00"  92%  77%  40°F  39°F  N/A
Tue 11:00 PM  43.4°F  46°F  calm  1 mph  none  0.00"  90%  77%  40°F  39°F  N/A
Tue 10:00 PM  45.3°F  47°F  calm  1 mph  none  0.00"  86%  75%  41°F  39°F  N/A

  1. Current weather data. No green row appears if the current weather data is also the high or low for the current day.
  2. High temperature for the current day.
  3. Low temperature for the current day.

The Wildomar, California weather pages are a service of WeatherCurrents. Wildomar is located southwestern Riverside County, California, north of Murrieta and south of Lake Elsinore.
Copyright ©Thu Dec 13 09:42:48 PST 2018  WeatherCurrents. All rights reserved. - Submit questions and comments - Privacy Policy

This page automatically refreshes every 10 minutes.